Terminal Aerodrome Forecast
Issued by NWS

Home | Current Version | Previous Version | Text Only | Print | Product List | Glossary On
Versions: 1 2 3 4 5 6 7 8 9 10 11 12 13 14 15 16 17 18 19 20 21 22 23
000
FTUS46 KSEW 262300 RRA
TAFBLI
TAF
KBLI 262341Z 2700/2724 15012G19KT P6SM BKN030
     FM270300 16016G27KT P6SM -RA BKN025 OVC060
     FM271000 17011G17KT P6SM -SHRA SCT007 BKN012
     FM272200 17010G15KT P6SM -SHRA SCT012 BKN025=

USA.gov is the U.S. government's official web portal to all federal, state and local government web resources and services.